createdAt,value
2018-08-17T00:00:19.344Z,21.20
2018-08-17T00:05:22.503Z,21.10
2018-08-17T00:10:25.666Z,21.10
2018-08-17T00:15:28.821Z,21.10
2018-08-17T00:20:31.932Z,21.00
2018-08-17T00:25:35.038Z,20.80
2018-08-17T00:30:38.148Z,20.70
2018-08-17T00:35:41.248Z,20.60
2018-08-17T00:40:44.363Z,20.60
2018-08-17T00:45:47.507Z,20.50
2018-08-17T00:50:50.536Z,20.50
2018-08-17T00:55:53.600Z,20.40
2018-08-17T01:00:56.737Z,20.30
2018-08-17T01:05:59.889Z,20.20
2018-08-17T01:11:02.959Z,20.10
2018-08-17T01:16:06.167Z,20.00
2018-08-17T01:21:10.357Z,19.90
2018-08-17T01:26:13.604Z,19.80
2018-08-17T01:31:16.712Z,19.80
2018-08-17T01:36:19.831Z,19.80
2018-08-17T01:41:22.939Z,19.70
2018-08-17T01:46:26.045Z,19.60
2018-08-17T01:51:29.145Z,19.60
2018-08-17T01:56:32.283Z,19.50
2018-08-17T02:01:35.385Z,19.40
2018-08-17T02:06:38.473Z,19.30
2018-08-17T02:11:42.009Z,19.30
2018-08-17T02:16:45.155Z,19.30
2018-08-17T02:21:48.281Z,19.20
2018-08-17T02:26:51.434Z,19.10
2018-08-17T02:31:54.593Z,19.00
2018-08-17T02:36:57.923Z,19.00
2018-08-17T02:42:01.074Z,18.90
2018-08-17T02:47:04.453Z,18.80
2018-08-17T02:52:07.636Z,18.70
2018-08-17T02:57:10.921Z,18.70
2018-08-17T03:02:14.050Z,18.60
2018-08-17T03:07:17.109Z,18.60
2018-08-17T03:12:20.216Z,18.50
2018-08-17T03:17:23.267Z,18.50
2018-08-17T03:22:26.392Z,18.50
2018-08-17T03:27:29.430Z,18.40
2018-08-17T03:32:32.669Z,18.20
2018-08-17T03:37:35.724Z,18.20
2018-08-17T03:42:38.807Z,18.10
2018-08-17T03:47:41.925Z,18.10
2018-08-17T03:52:44.998Z,18.10
2018-08-17T03:57:48.135Z,18.00
2018-08-17T04:02:51.240Z,17.90
2018-08-17T04:07:54.347Z,17.90
2018-08-17T04:12:57.462Z,17.80
2018-08-17T04:18:00.701Z,17.70
2018-08-17T04:23:03.771Z,17.80
2018-08-17T04:28:07.036Z,17.70
2018-08-17T04:33:10.139Z,17.80
2018-08-17T04:38:13.435Z,17.80
2018-08-17T04:43:16.561Z,17.90
2018-08-17T04:48:19.709Z,17.90
2018-08-17T04:53:22.815Z,18.00
2018-08-17T04:58:26.580Z,18.10
2018-08-17T05:03:29.782Z,18.30
2018-08-17T05:08:32.807Z,18.50
2018-08-17T05:13:35.980Z,18.50
2018-08-17T05:18:39.078Z,18.60
2018-08-17T05:23:42.203Z,18.70
2018-08-17T05:28:45.317Z,18.80
2018-08-17T05:33:49.466Z,19.00
2018-08-17T05:38:52.766Z,19.00
2018-08-17T05:43:55.872Z,19.20
2018-08-17T05:48:58.946Z,19.40
2018-08-17T05:54:02.143Z,19.40
2018-08-17T05:59:05.215Z,19.60
2018-08-17T06:04:08.310Z,19.80
2018-08-17T06:09:11.734Z,20.10
2018-08-17T06:14:14.768Z,20.30
2018-08-17T06:19:17.947Z,20.70
2018-08-17T06:24:21.473Z,21.90
2018-08-17T06:29:24.602Z,23.50
2018-08-17T06:34:28.237Z,24.70
2018-08-17T06:39:31.415Z,25.70
2018-08-17T06:44:34.504Z,26.50
2018-08-17T06:49:38.942Z,26.50
2018-08-17T06:54:42.005Z,27.40
2018-08-17T06:59:45.143Z,27.90
2018-08-17T07:04:50.034Z,28.20
2018-08-17T07:09:53.346Z,29.20
2018-08-17T07:14:57.298Z,29.30
2018-08-17T07:20:00.490Z,29.80
2018-08-17T07:25:03.725Z,30.10
2018-08-17T07:30:08.998Z,30.40
2018-08-17T07:35:12.077Z,31.00
2018-08-17T07:45:18.058Z,31.50
2018-08-17T07:50:21.826Z,31.70
2018-08-17T07:55:24.962Z,32.40
2018-08-17T08:00:28.493Z,32.40
2018-08-17T08:05:31.631Z,32.40
2018-08-17T08:10:34.910Z,32.20
2018-08-17T08:15:38.000Z,32.30
2018-08-17T08:20:43.140Z,32.60
2018-08-17T08:25:46.252Z,33.30
2018-08-17T08:30:49.465Z,33.90
2018-08-17T08:35:52.615Z,33.80
2018-08-17T08:40:55.840Z,33.90
2018-08-17T08:45:58.979Z,32.90
2018-08-17T08:51:02.264Z,31.70
2018-08-17T08:56:05.487Z,30.50
2018-08-17T09:01:09.602Z,29.90
2018-08-17T09:06:12.813Z,29.40
2018-08-17T09:11:16.004Z,29.30
2018-08-17T09:16:19.200Z,29.40
2018-08-17T09:21:22.461Z,29.30
2018-08-17T09:26:25.541Z,29.40
2018-08-17T09:31:28.642Z,29.80
2018-08-17T09:36:31.790Z,30.00
2018-08-17T09:41:35.080Z,30.10
2018-08-17T09:46:38.572Z,29.80
2018-08-17T09:51:42.734Z,29.70
2018-08-17T09:56:46.044Z,29.80
2018-08-17T10:01:54.862Z,29.80
2018-08-17T10:07:03.344Z,29.80
2018-08-17T10:12:06.338Z,29.90
2018-08-17T10:17:09.511Z,30.10
2018-08-17T10:22:12.700Z,30.00
2018-08-17T10:27:15.859Z,30.10
2018-08-17T10:32:19.694Z,30.20
2018-08-17T10:37:22.846Z,30.20
2018-08-17T10:42:25.944Z,30.30
2018-08-17T10:47:28.963Z,30.00
2018-08-17T10:52:32.302Z,29.90
2018-08-17T10:57:35.462Z,30.00
2018-08-17T11:02:38.550Z,30.30
2018-08-17T11:07:42.001Z,30.60
2018-08-17T11:12:46.312Z,30.70
2018-08-17T11:17:49.374Z,30.70
2018-08-17T11:22:52.493Z,30.80
2018-08-17T11:27:55.655Z,30.90
2018-08-17T11:32:58.761Z,30.90
2018-08-17T11:38:01.823Z,30.80
2018-08-17T11:43:04.937Z,30.70
2018-08-17T11:48:09.103Z,30.90
2018-08-17T11:53:13.413Z,31.00
2018-08-17T11:58:16.697Z,31.20
2018-08-17T12:03:20.015Z,31.50
2018-08-17T12:08:23.302Z,31.40
2018-08-17T12:13:27.369Z,31.40
2018-08-17T12:18:30.512Z,31.30
2018-08-17T12:23:34.685Z,31.40
2018-08-17T12:28:37.791Z,31.70
2018-08-17T12:33:40.950Z,31.90
2018-08-17T12:38:43.989Z,32.00
2018-08-17T12:43:47.006Z,32.10
2018-08-17T12:48:50.222Z,32.00
2018-08-17T12:53:53.329Z,32.20
2018-08-17T12:58:56.431Z,32.20
2018-08-17T13:04:00.624Z,32.20
2018-08-17T13:09:04.315Z,32.30
2018-08-17T13:14:11.794Z,32.20
2018-08-17T13:19:14.959Z,32.00
2018-08-17T13:24:18.034Z,31.90
2018-08-17T13:29:21.137Z,32.00
2018-08-17T13:34:24.236Z,32.00
2018-08-17T13:39:27.366Z,31.90
2018-08-17T13:44:30.460Z,31.50
2018-08-17T13:49:33.809Z,31.40
2018-08-17T13:54:36.896Z,31.30
2018-08-17T13:59:39.967Z,31.40
2018-08-17T14:04:43.101Z,31.50
2018-08-17T14:09:46.185Z,31.50
2018-08-17T14:14:49.291Z,31.60
2018-08-17T14:19:52.403Z,31.70
2018-08-17T14:24:55.460Z,31.90
2018-08-17T14:29:58.655Z,32.00
2018-08-17T14:35:01.745Z,32.10
2018-08-17T14:40:05.472Z,32.00
2018-08-17T14:45:09.503Z,32.00
2018-08-17T14:50:13.728Z,32.00
2018-08-17T14:55:16.850Z,32.00
2018-08-17T15:00:19.952Z,32.00
2018-08-17T15:05:23.377Z,31.80
2018-08-17T15:10:26.929Z,31.70
2018-08-17T15:15:30.114Z,31.80
2018-08-17T15:20:33.214Z,31.80
2018-08-17T15:25:36.895Z,31.90
2018-08-17T15:30:40.024Z,32.00
2018-08-17T15:35:43.156Z,31.90
2018-08-17T15:40:46.264Z,31.70
2018-08-17T15:45:50.048Z,31.50
2018-08-17T15:50:53.188Z,31.40
2018-08-17T15:55:56.376Z,31.50
2018-08-17T16:00:59.722Z,31.60
2018-08-17T16:06:02.701Z,31.70
2018-08-17T16:11:05.772Z,31.60
2018-08-17T16:16:09.220Z,31.60
2018-08-17T16:21:12.364Z,31.50
2018-08-17T16:26:15.476Z,31.50
2018-08-17T16:31:18.637Z,31.50
2018-08-17T16:36:21.937Z,31.30
2018-08-17T16:41:25.000Z,31.10
2018-08-17T16:46:28.067Z,30.90
2018-08-17T16:51:31.172Z,30.70
2018-08-17T16:56:34.792Z,30.40
2018-08-17T17:01:37.888Z,30.20
2018-08-17T17:06:41.069Z,30.00
2018-08-17T17:11:44.361Z,29.90
2018-08-17T17:16:47.481Z,29.70
2018-08-17T17:21:51.827Z,29.50
2018-08-17T17:26:55.639Z,29.40
2018-08-17T17:31:58.729Z,29.20
2018-08-17T17:37:01.896Z,28.90
2018-08-17T17:42:05.203Z,28.70
2018-08-17T17:47:08.514Z,28.40
2018-08-17T17:52:12.212Z,28.20
2018-08-17T17:57:15.459Z,27.90
2018-08-17T18:02:18.554Z,27.60
2018-08-17T18:07:21.932Z,27.30
2018-08-17T18:12:25.119Z,27.10
2018-08-17T18:17:28.282Z,26.80
2018-08-17T18:22:32.198Z,26.70
2018-08-17T18:27:36.037Z,26.50
2018-08-17T18:32:41.283Z,26.30
2018-08-17T18:37:44.466Z,26.10
2018-08-17T18:42:47.666Z,25.90
2018-08-17T18:47:50.935Z,25.70
2018-08-17T18:52:54.269Z,25.60
2018-08-17T18:57:57.392Z,25.40
2018-08-17T19:03:00.885Z,25.20
2018-08-17T19:08:04.398Z,25.10
2018-08-17T19:13:08.676Z,24.90
2018-08-17T19:18:13.701Z,24.80
2018-08-17T19:23:16.940Z,24.70
2018-08-17T19:28:20.091Z,24.60
2018-08-17T19:33:23.749Z,24.40
2018-08-17T19:38:26.932Z,24.30
2018-08-17T19:43:32.085Z,24.20
2018-08-17T19:48:35.659Z,24.00
2018-08-17T19:53:39.123Z,23.90
2018-08-17T19:58:42.802Z,23.80
2018-08-17T20:03:45.881Z,23.70
2018-08-17T20:08:49.055Z,23.60
2018-08-17T20:13:53.216Z,23.50
2018-08-17T20:18:56.406Z,23.40
2018-08-17T20:23:59.692Z,23.30
2018-08-17T20:29:03.906Z,23.10
2018-08-17T20:34:07.018Z,23.10
2018-08-17T20:39:12.808Z,23.00
2018-08-17T20:44:17.009Z,22.90
2018-08-17T20:49:20.367Z,22.80
2018-08-17T20:54:28.410Z,22.80
2018-08-17T20:59:31.497Z,22.70
2018-08-17T21:04:34.707Z,22.60
2018-08-17T21:09:37.819Z,22.50
2018-08-17T21:14:40.989Z,22.50
2018-08-17T21:19:46.258Z,22.40
2018-08-17T21:24:50.129Z,22.40
2018-08-17T21:29:53.316Z,22.30
2018-08-17T21:34:56.526Z,22.20
2018-08-17T21:39:59.571Z,22.20
2018-08-17T21:45:02.677Z,22.20
2018-08-17T21:50:13.376Z,22.10
2018-08-17T21:55:16.435Z,22.10
2018-08-17T22:00:21.570Z,22.00
2018-08-17T22:05:28.959Z,21.90
2018-08-17T22:10:32.112Z,21.90
2018-08-17T22:15:35.169Z,21.80
2018-08-17T22:20:38.356Z,21.70
2018-08-17T22:25:41.436Z,21.80
2018-08-17T22:30:45.304Z,21.60
2018-08-17T22:35:48.615Z,21.50
2018-08-17T22:40:51.743Z,21.40
2018-08-17T22:45:54.903Z,21.30
2018-08-17T22:50:58.218Z,21.30
2018-08-17T22:56:01.650Z,21.30
2018-08-17T23:01:04.739Z,21.20
2018-08-17T23:06:07.981Z,21.10
2018-08-17T23:11:21.339Z,21.00
2018-08-17T23:16:24.428Z,20.90
2018-08-17T23:21:27.614Z,20.90
2018-08-17T23:26:30.741Z,20.90
2018-08-17T23:31:35.147Z,20.80
2018-08-17T23:36:39.382Z,20.70
2018-08-17T23:41:42.443Z,20.70
2018-08-17T23:46:45.600Z,20.60
2018-08-17T23:51:48.821Z,20.50
2018-08-17T23:56:52.096Z,20.50
